sensor_id;sensor_type;location;lat;lon;timestamp;P1;durP1;ratioP1;P2;durP2;ratioP2
36829;SDS011;22767;47.328;9.640;2024-01-30T00:01:44;23.25;;;14.85;;
36829;SDS011;22767;47.328;9.640;2024-01-30T00:04:10;22.02;;;13.90;;
36829;SDS011;22767;47.328;9.640;2024-01-30T00:06:36;27.75;;;14.05;;
36829;SDS011;22767;47.328;9.640;2024-01-30T00:09:02;22.02;;;13.00;;
36829;SDS011;22767;47.328;9.640;2024-01-30T00:11:30;18.70;;;12.85;;
36829;SDS011;22767;47.328;9.640;2024-01-30T00:13:56;18.83;;;13.18;;
36829;SDS011;22767;47.328;9.640;2024-01-30T00:16:29;21.63;;;13.77;;
36829;SDS011;22767;47.328;9.640;2024-01-30T00:18:56;21.25;;;12.75;;
36829;SDS011;22767;47.328;9.640;2024-01-30T00:21:25;19.13;;;13.13;;
36829;SDS011;22767;47.328;9.640;2024-01-30T00:23:51;20.10;;;12.95;;
36829;SDS011;22767;47.328;9.640;2024-01-30T00:26:17;19.33;;;13.73;;
36829;SDS011;22767;47.328;9.640;2024-01-30T00:28:52;18.75;;;13.23;;
36829;SDS011;22767;47.328;9.640;2024-01-30T00:31:18;18.02;;;12.95;;
36829;SDS011;22767;47.328;9.640;2024-01-30T00:33:44;20.65;;;14.07;;
36829;SDS011;22767;47.328;9.640;2024-01-30T00:36:10;18.73;;;12.77;;
36829;SDS011;22767;47.328;9.640;2024-01-30T00:38:36;19.52;;;13.13;;
36829;SDS011;22767;47.328;9.640;2024-01-30T00:41:03;16.80;;;12.07;;
36829;SDS011;22767;47.328;9.640;2024-01-30T00:43:29;16.90;;;11.95;;
36829;SDS011;22767;47.328;9.640;2024-01-30T00:46:02;16.48;;;12.43;;
36829;SDS011;22767;47.328;9.640;2024-01-30T00:48:28;17.75;;;11.95;;
36829;SDS011;22767;47.328;9.640;2024-01-30T00:50:54;14.07;;;10.88;;
36829;SDS011;22767;47.328;9.640;2024-01-30T00:53:27;15.68;;;11.00;;
36829;SDS011;22767;47.328;9.640;2024-01-30T00:55:53;15.38;;;10.80;;
36829;SDS011;22767;47.328;9.640;2024-01-30T00:58:22;17.13;;;10.95;;
36829;SDS011;22767;47.328;9.640;2024-01-30T01:00:48;18.52;;;11.35;;
36829;SDS011;22767;47.328;9.640;2024-01-30T01:03:14;21.75;;;10.88;;
36829;SDS011;22767;47.328;9.640;2024-01-30T01:05:43;13.70;;;10.45;;
36829;SDS011;22767;47.328;9.640;2024-01-30T01:08:09;15.40;;;9.95;;
36829;SDS011;22767;47.328;9.640;2024-01-30T01:10:35;19.08;;;10.73;;
36829;SDS011;22767;47.328;9.640;2024-01-30T01:13:01;14.10;;;10.85;;
36829;SDS011;22767;47.328;9.640;2024-01-30T01:15:28;15.32;;;10.75;;
36829;SDS011;22767;47.328;9.640;2024-01-30T01:17:54;21.42;;;11.27;;
36829;SDS011;22767;47.328;9.640;2024-01-30T01:20:24;19.83;;;11.32;;
36829;SDS011;22767;47.328;9.640;2024-01-30T01:22:56;23.58;;;10.65;;
36829;SDS011;22767;47.328;9.640;2024-01-30T01:27:55;20.20;;;10.43;;
36829;SDS011;22767;47.328;9.640;2024-01-30T01:30:33;32.08;;;10.50;;
36829;SDS011;22767;47.328;9.640;2024-01-30T01:33:03;25.42;;;10.73;;
36829;SDS011;22767;47.328;9.640;2024-01-30T01:35:29;21.13;;;11.05;;
36829;SDS011;22767;47.328;9.640;2024-01-30T01:37:55;20.73;;;11.38;;
36829;SDS011;22767;47.328;9.640;2024-01-30T01:40:26;17.63;;;10.48;;
36829;SDS011;22767;47.328;9.640;2024-01-30T01:42:58;18.30;;;10.73;;
36829;SDS011;22767;47.328;9.640;2024-01-30T01:45:30;17.52;;;11.48;;
36829;SDS011;22767;47.328;9.640;2024-01-30T01:47:56;18.25;;;10.85;;
36829;SDS011;22767;47.328;9.640;2024-01-30T01:50:22;14.98;;;10.57;;
36829;SDS011;22767;47.328;9.640;2024-01-30T01:52:49;18.60;;;11.18;;
36829;SDS011;22767;47.328;9.640;2024-01-30T01:55:16;14.43;;;10.05;;
36829;SDS011;22767;47.328;9.640;2024-01-30T01:57:47;17.98;;;10.23;;
36829;SDS011;22767;47.328;9.640;2024-01-30T02:00:19;18.23;;;8.82;;
36829;SDS011;22767;47.328;9.640;2024-01-30T02:02:46;15.85;;;9.57;;
36829;SDS011;22767;47.328;9.640;2024-01-30T02:05:12;18.58;;;9.38;;
36829;SDS011;22767;47.328;9.640;2024-01-30T02:07:38;12.18;;;8.88;;
36829;SDS011;22767;47.328;9.640;2024-01-30T02:10:12;16.70;;;9.25;;
36829;SDS011;22767;47.328;9.640;2024-01-30T02:12:38;19.02;;;10.05;;
36829;SDS011;22767;47.328;9.640;2024-01-30T02:15:06;17.45;;;9.40;;
36829;SDS011;22767;47.328;9.640;2024-01-30T02:17:33;12.13;;;8.73;;
36829;SDS011;22767;47.328;9.640;2024-01-30T02:19:59;10.98;;;7.88;;
36829;SDS011;22767;47.328;9.640;2024-01-30T02:22:25;12.98;;;8.90;;
36829;SDS011;22767;47.328;9.640;2024-01-30T02:24:51;12.88;;;9.50;;
36829;SDS011;22767;47.328;9.640;2024-01-30T02:27:17;11.50;;;8.80;;
36829;SDS011;22767;47.328;9.640;2024-01-30T02:29:45;12.75;;;9.48;;
36829;SDS011;22767;47.328;9.640;2024-01-30T02:32:11;11.55;;;9.02;;
36829;SDS011;22767;47.328;9.640;2024-01-30T02:34:37;15.43;;;9.25;;
36829;SDS011;22767;47.328;9.640;2024-01-30T02:37:03;11.93;;;8.98;;
36829;SDS011;22767;47.328;9.640;2024-01-30T02:39:31;16.05;;;8.82;;
36829;SDS011;22767;47.328;9.640;2024-01-30T02:41:58;12.73;;;9.40;;
36829;SDS011;22767;47.328;9.640;2024-01-30T02:44:31;14.75;;;8.90;;
36829;SDS011;22767;47.328;9.640;2024-01-30T02:47:00;14.25;;;9.50;;
36829;SDS011;22767;47.328;9.640;2024-01-30T02:49:26;16.15;;;9.60;;
36829;SDS011;22767;47.328;9.640;2024-01-30T02:51:53;15.23;;;9.23;;
36829;SDS011;22767;47.328;9.640;2024-01-30T02:54:20;18.98;;;9.07;;
36829;SDS011;22767;47.328;9.640;2024-01-30T02:56:46;13.70;;;9.32;;
36829;SDS011;22767;47.328;9.640;2024-01-30T02:59:13;12.57;;;8.55;;
36829;SDS011;22767;47.328;9.640;2024-01-30T03:01:46;15.75;;;8.48;;
36829;SDS011;22767;47.328;9.640;2024-01-30T03:04:21;12.30;;;9.10;;
36829;SDS011;22767;47.328;9.640;2024-01-30T03:06:50;13.93;;;8.98;;
36829;SDS011;22767;47.328;9.640;2024-01-30T03:09:22;10.43;;;8.05;;
36829;SDS011;22767;47.328;9.640;2024-01-30T03:11:48;10.27;;;8.25;;
36829;SDS011;22767;47.328;9.640;2024-01-30T03:14:14;20.35;;;8.70;;
36829;SDS011;22767;47.328;9.640;2024-01-30T03:16:40;20.38;;;8.70;;
36829;SDS011;22767;47.328;9.640;2024-01-30T03:19:06;17.33;;;9.02;;
36829;SDS011;22767;47.328;9.640;2024-01-30T03:21:34;15.95;;;9.02;;
36829;SDS011;22767;47.328;9.640;2024-01-30T03:24:07;20.85;;;8.90;;
36829;SDS011;22767;47.328;9.640;2024-01-30T03:26:34;24.30;;;8.77;;
36829;SDS011;22767;47.328;9.640;2024-01-30T03:29:00;36.50;;;9.55;;
36829;SDS011;22767;47.328;9.640;2024-01-30T03:31:26;16.05;;;9.23;;
36829;SDS011;22767;47.328;9.640;2024-01-30T03:33:52;18.50;;;9.02;;
36829;SDS011;22767;47.328;9.640;2024-01-30T03:36:25;13.48;;;9.10;;
36829;SDS011;22767;47.328;9.640;2024-01-30T03:38:51;15.95;;;8.20;;
36829;SDS011;22767;47.328;9.640;2024-01-30T03:41:17;15.30;;;9.00;;
36829;SDS011;22767;47.328;9.640;2024-01-30T03:43:43;13.55;;;9.77;;
36829;SDS011;22767;47.328;9.640;2024-01-30T03:46:11;19.38;;;11.18;;
36829;SDS011;22767;47.328;9.640;2024-01-30T03:48:37;14.40;;;9.63;;
36829;SDS011;22767;47.328;9.640;2024-01-30T03:51:07;14.05;;;9.02;;
36829;SDS011;22767;47.328;9.640;2024-01-30T03:53:33;10.82;;;8.55;;
36829;SDS011;22767;47.328;9.640;2024-01-30T03:55:59;15.48;;;8.77;;
36829;SDS011;22767;47.328;9.640;2024-01-30T03:58:25;12.02;;;8.88;;
36829;SDS011;22767;47.328;9.640;2024-01-30T04:00:51;13.30;;;8.75;;
36829;SDS011;22767;47.328;9.640;2024-01-30T04:03:17;13.30;;;8.23;;
36829;SDS011;22767;47.328;9.640;2024-01-30T04:05:53;14.55;;;8.98;;
36829;SDS011;22767;47.328;9.640;2024-01-30T04:08:19;11.73;;;7.55;;
36829;SDS011;22767;47.328;9.640;2024-01-30T04:10:49;13.13;;;8.77;;
36829;SDS011;22767;47.328;9.640;2024-01-30T04:13:15;13.40;;;8.50;;
36829;SDS011;22767;47.328;9.640;2024-01-30T04:15:41;11.75;;;8.48;;
36829;SDS011;22767;47.328;9.640;2024-01-30T04:18:07;9.73;;;7.60;;
36829;SDS011;22767;47.328;9.640;2024-01-30T04:20:33;16.23;;;7.82;;
36829;SDS011;22767;47.328;9.640;2024-01-30T04:22:59;15.55;;;8.05;;
36829;SDS011;22767;47.328;9.640;2024-01-30T04:25:25;13.18;;;8.20;;
36829;SDS011;22767;47.328;9.640;2024-01-30T04:27:52;11.18;;;8.10;;
36829;SDS011;22767;47.328;9.640;2024-01-30T04:30:18;17.42;;;8.73;;
36829;SDS011;22767;47.328;9.640;2024-01-30T04:32:50;13.70;;;9.00;;
36829;SDS011;22767;47.328;9.640;2024-01-30T04:35:16;14.45;;;8.60;;
36829;SDS011;22767;47.328;9.640;2024-01-30T04:37:42;11.60;;;8.52;;
36829;SDS011;22767;47.328;9.640;2024-01-30T04:40:08;15.95;;;8.52;;
36829;SDS011;22767;47.328;9.640;2024-01-30T04:42:34;16.42;;;8.93;;
36829;SDS011;22767;47.328;9.640;2024-01-30T04:45:00;13.13;;;8.60;;
36829;SDS011;22767;47.328;9.640;2024-01-30T04:47:27;24.85;;;9.05;;
36829;SDS011;22767;47.328;9.640;2024-01-30T04:50:01;17.67;;;7.78;;
36829;SDS011;22767;47.328;9.640;2024-01-30T04:52:29;11.75;;;7.82;;
36829;SDS011;22767;47.328;9.640;2024-01-30T04:54:55;13.13;;;7.63;;
36829;SDS011;22767;47.328;9.640;2024-01-30T04:57:21;12.70;;;8.05;;
36829;SDS011;22767;47.328;9.640;2024-01-30T04:59:47;9.40;;;7.50;;
36829;SDS011;22767;47.328;9.640;2024-01-30T05:02:15;10.38;;;7.47;;
36829;SDS011;22767;47.328;9.640;2024-01-30T05:04:41;10.82;;;7.22;;
36829;SDS011;22767;47.328;9.640;2024-01-30T05:07:07;9.52;;;7.20;;
36829;SDS011;22767;47.328;9.640;2024-01-30T05:09:33;10.15;;;7.35;;
36829;SDS011;22767;47.328;9.640;2024-01-30T05:12:01;7.32;;;6.43;;
36829;SDS011;22767;47.328;9.640;2024-01-30T05:14:27;9.10;;;7.05;;
36829;SDS011;22767;47.328;9.640;2024-01-30T05:16:53;8.10;;;6.65;;
36829;SDS011;22767;47.328;9.640;2024-01-30T05:19:19;8.30;;;6.80;;
36829;SDS011;22767;47.328;9.640;2024-01-30T05:21:49;8.63;;;7.05;;
36829;SDS011;22767;47.328;9.640;2024-01-30T05:24:15;7.55;;;6.75;;
36829;SDS011;22767;47.328;9.640;2024-01-30T05:26:41;9.90;;;7.55;;
36829;SDS011;22767;47.328;9.640;2024-01-30T05:29:07;12.05;;;8.45;;
36829;SDS011;22767;47.328;9.640;2024-01-30T05:31:36;17.40;;;9.88;;
36829;SDS011;22767;47.328;9.640;2024-01-30T05:34:09;14.35;;;9.65;;
36829;SDS011;22767;47.328;9.640;2024-01-30T05:36:42;15.18;;;9.25;;
36829;SDS011;22767;47.328;9.640;2024-01-30T05:39:08;22.45;;;11.27;;
36829;SDS011;22767;47.328;9.640;2024-01-30T05:41:35;24.40;;;12.40;;
36829;SDS011;22767;47.328;9.640;2024-01-30T05:44:01;18.02;;;10.30;;
36829;SDS011;22767;47.328;9.640;2024-01-30T05:46:27;22.95;;;12.75;;
36829;SDS011;22767;47.328;9.640;2024-01-30T05:49:00;25.02;;;12.45;;
36829;SDS011;22767;47.328;9.640;2024-01-30T05:51:26;21.50;;;11.68;;
36829;SDS011;22767;47.328;9.640;2024-01-30T05:53:53;19.67;;;10.18;;
36829;SDS011;22767;47.328;9.640;2024-01-30T05:56:19;13.68;;;9.60;;
36829;SDS011;22767;47.328;9.640;2024-01-30T05:58:45;14.65;;;9.13;;
36829;SDS011;22767;47.328;9.640;2024-01-30T06:01:15;17.27;;;9.68;;
36829;SDS011;22767;47.328;9.640;2024-01-30T06:03:41;16.48;;;10.07;;
36829;SDS011;22767;47.328;9.640;2024-01-30T06:06:08;16.35;;;10.07;;
36829;SDS011;22767;47.328;9.640;2024-01-30T06:08:34;12.80;;;8.85;;
36829;SDS011;22767;47.328;9.640;2024-01-30T06:11:00;13.95;;;9.18;;
36829;SDS011;22767;47.328;9.640;2024-01-30T06:13:27;13.25;;;8.48;;
36829;SDS011;22767;47.328;9.640;2024-01-30T06:15:55;14.95;;;9.52;;
36829;SDS011;22767;47.328;9.640;2024-01-30T06:18:21;12.45;;;9.00;;
36829;SDS011;22767;47.328;9.640;2024-01-30T06:20:54;13.15;;;8.90;;
36829;SDS011;22767;47.328;9.640;2024-01-30T06:23:20;14.23;;;9.00;;
36829;SDS011;22767;47.328;9.640;2024-01-30T06:25:46;12.35;;;8.77;;
36829;SDS011;22767;47.328;9.640;2024-01-30T06:28:12;11.02;;;7.97;;
36829;SDS011;22767;47.328;9.640;2024-01-30T06:30:38;12.13;;;8.32;;
36829;SDS011;22767;47.328;9.640;2024-01-30T06:33:12;11.93;;;8.55;;
36829;SDS011;22767;47.328;9.640;2024-01-30T06:35:38;11.27;;;7.95;;
36829;SDS011;22767;47.328;9.640;2024-01-30T06:38:05;10.45;;;8.05;;
36829;SDS011;22767;47.328;9.640;2024-01-30T06:40:31;12.00;;;8.48;;
36829;SDS011;22767;47.328;9.640;2024-01-30T06:42:59;12.23;;;8.52;;
36829;SDS011;22767;47.328;9.640;2024-01-30T06:45:25;14.15;;;8.88;;
36829;SDS011;22767;47.328;9.640;2024-01-30T06:47:58;11.30;;;8.40;;
36829;SDS011;22767;47.328;9.640;2024-01-30T06:50:24;10.23;;;8.00;;
36829;SDS011;22767;47.328;9.640;2024-01-30T06:52:50;10.93;;;7.75;;
36829;SDS011;22767;47.328;9.640;2024-01-30T06:55:16;11.23;;;7.88;;
36829;SDS011;22767;47.328;9.640;2024-01-30T06:57:42;10.93;;;7.63;;
36829;SDS011;22767;47.328;9.640;2024-01-30T07:00:08;11.98;;;7.78;;
36829;SDS011;22767;47.328;9.640;2024-01-30T07:02:34;12.77;;;8.32;;
36829;SDS011;22767;47.328;9.640;2024-01-30T07:05:00;17.38;;;9.25;;
36829;SDS011;22767;47.328;9.640;2024-01-30T07:07:26;36.95;;;10.10;;
36829;SDS011;22767;47.328;9.640;2024-01-30T07:09:53;19.65;;;9.80;;
36829;SDS011;22767;47.328;9.640;2024-01-30T07:12:21;17.60;;;9.43;;
36829;SDS011;22767;47.328;9.640;2024-01-30T07:14:48;18.35;;;8.90;;
36829;SDS011;22767;47.328;9.640;2024-01-30T07:17:14;18.10;;;10.05;;
36829;SDS011;22767;47.328;9.640;2024-01-30T07:19:43;15.77;;;9.93;;
36829;SDS011;22767;47.328;9.640;2024-01-30T07:22:09;17.55;;;9.77;;
36829;SDS011;22767;47.328;9.640;2024-01-30T07:24:35;20.15;;;10.48;;
36829;SDS011;22767;47.328;9.640;2024-01-30T07:27:08;17.27;;;10.30;;
36829;SDS011;22767;47.328;9.640;2024-01-30T07:32:00;16.27;;;10.07;;
36829;SDS011;22767;47.328;9.640;2024-01-30T07:34:26;17.77;;;10.98;;
36829;SDS011;22767;47.328;9.640;2024-01-30T07:36:55;17.10;;;10.90;;
36829;SDS011;22767;47.328;9.640;2024-01-30T07:39:21;18.30;;;12.68;;
36829;SDS011;22767;47.328;9.640;2024-01-30T07:41:47;18.08;;;11.10;;
36829;SDS011;22767;47.328;9.640;2024-01-30T07:44:20;17.88;;;11.13;;
36829;SDS011;22767;47.328;9.640;2024-01-30T07:46:46;15.07;;;9.70;;
36829;SDS011;22767;47.328;9.640;2024-01-30T07:49:20;16.58;;;9.75;;
36829;SDS011;22767;47.328;9.640;2024-01-30T07:51:46;16.55;;;9.13;;
36829;SDS011;22767;47.328;9.640;2024-01-30T07:54:15;20.45;;;10.80;;
36829;SDS011;22767;47.328;9.640;2024-01-30T07:56:41;18.63;;;10.75;;
36829;SDS011;22767;47.328;9.640;2024-01-30T07:59:10;17.02;;;9.90;;
36829;SDS011;22767;47.328;9.640;2024-01-30T08:01:44;18.33;;;10.43;;
36829;SDS011;22767;47.328;9.640;2024-01-30T08:04:17;17.05;;;10.18;;
36829;SDS011;22767;47.328;9.640;2024-01-30T08:06:43;18.05;;;10.98;;
36829;SDS011;22767;47.328;9.640;2024-01-30T08:09:11;18.33;;;10.75;;
36829;SDS011;22767;47.328;9.640;2024-01-30T08:11:37;20.20;;;10.55;;
36829;SDS011;22767;47.328;9.640;2024-01-30T08:14:11;17.23;;;11.18;;
36829;SDS011;22767;47.328;9.640;2024-01-30T08:16:38;17.05;;;11.10;;
36829;SDS011;22767;47.328;9.640;2024-01-30T08:19:04;16.58;;;10.77;;
36829;SDS011;22767;47.328;9.640;2024-01-30T08:21:30;20.05;;;11.68;;
36829;SDS011;22767;47.328;9.640;2024-01-30T08:24:01;20.98;;;13.02;;
36829;SDS011;22767;47.328;9.640;2024-01-30T08:26:33;21.90;;;12.68;;
36829;SDS011;22767;47.328;9.640;2024-01-30T08:29:00;21.67;;;12.55;;
36829;SDS011;22767;47.328;9.640;2024-01-30T08:31:26;23.25;;;12.90;;
36829;SDS011;22767;47.328;9.640;2024-01-30T08:33:52;18.40;;;12.30;;
36829;SDS011;22767;47.328;9.640;2024-01-30T08:36:19;22.40;;;13.15;;
36829;SDS011;22767;47.328;9.640;2024-01-30T08:38:45;22.02;;;13.40;;
36829;SDS011;22767;47.328;9.640;2024-01-30T08:41:12;19.50;;;12.57;;
36829;SDS011;22767;47.328;9.640;2024-01-30T08:43:38;19.75;;;11.88;;
36829;SDS011;22767;47.328;9.640;2024-01-30T08:46:11;19.70;;;11.77;;
36829;SDS011;22767;47.328;9.640;2024-01-30T08:48:40;19.08;;;11.68;;
36829;SDS011;22767;47.328;9.640;2024-01-30T08:51:07;20.33;;;12.23;;
36829;SDS011;22767;47.328;9.640;2024-01-30T08:53:33;20.52;;;12.27;;
36829;SDS011;22767;47.328;9.640;2024-01-30T08:56:00;19.63;;;11.38;;
36829;SDS011;22767;47.328;9.640;2024-01-30T08:58:26;17.77;;;11.43;;
36829;SDS011;22767;47.328;9.640;2024-01-30T09:00:52;19.27;;;10.57;;
36829;SDS011;22767;47.328;9.640;2024-01-30T09:03:25;21.67;;;11.77;;
36829;SDS011;22767;47.328;9.640;2024-01-30T09:05:57;21.23;;;12.57;;
36829;SDS011;22767;47.328;9.640;2024-01-30T09:08:23;17.65;;;10.73;;
36829;SDS011;22767;47.328;9.640;2024-01-30T09:10:50;18.65;;;12.30;;
36829;SDS011;22767;47.328;9.640;2024-01-30T09:13:16;19.92;;;12.40;;
36829;SDS011;22767;47.328;9.640;2024-01-30T09:15:42;24.08;;;13.18;;
36829;SDS011;22767;47.328;9.640;2024-01-30T09:18:09;22.23;;;12.48;;
36829;SDS011;22767;47.328;9.640;2024-01-30T09:20:35;21.17;;;12.63;;
36829;SDS011;22767;47.328;9.640;2024-01-30T09:23:01;18.67;;;11.63;;
36829;SDS011;22767;47.328;9.640;2024-01-30T09:25:27;18.38;;;12.02;;
36829;SDS011;22767;47.328;9.640;2024-01-30T09:27:53;20.30;;;12.15;;
36829;SDS011;22767;47.328;9.640;2024-01-30T09:30:19;19.70;;;11.20;;
36829;SDS011;22767;47.328;9.640;2024-01-30T09:32:45;18.55;;;11.52;;
36829;SDS011;22767;47.328;9.640;2024-01-30T09:35:11;20.20;;;11.77;;
36829;SDS011;22767;47.328;9.640;2024-01-30T09:37:43;18.05;;;11.25;;
36829;SDS011;22767;47.328;9.640;2024-01-30T09:40:13;17.02;;;11.38;;
36829;SDS011;22767;47.328;9.640;2024-01-30T09:42:50;24.25;;;12.88;;
36829;SDS011;22767;47.328;9.640;2024-01-30T09:45:17;20.42;;;12.60;;
36829;SDS011;22767;47.328;9.640;2024-01-30T09:47:47;19.08;;;11.88;;
36829;SDS011;22767;47.328;9.640;2024-01-30T09:50:13;18.52;;;11.60;;
36829;SDS011;22767;47.328;9.640;2024-01-30T09:52:43;19.48;;;12.95;;
36829;SDS011;22767;47.328;9.640;2024-01-30T09:55:09;21.25;;;14.13;;
36829;SDS011;22767;47.328;9.640;2024-01-30T09:57:36;21.42;;;13.13;;
36829;SDS011;22767;47.328;9.640;2024-01-30T10:00:03;20.23;;;13.20;;
36829;SDS011;22767;47.328;9.640;2024-01-30T10:02:31;19.10;;;12.65;;
36829;SDS011;22767;47.328;9.640;2024-01-30T10:04:57;19.17;;;12.65;;
36829;SDS011;22767;47.328;9.640;2024-01-30T10:07:29;16.85;;;12.00;;
36829;SDS011;22767;47.328;9.640;2024-01-30T10:12:29;21.58;;;13.57;;
36829;SDS011;22767;47.328;9.640;2024-01-30T10:14:56;20.30;;;12.98;;
36829;SDS011;22767;47.328;9.640;2024-01-30T10:17:24;18.70;;;11.90;;
36829;SDS011;22767;47.328;9.640;2024-01-30T10:19:52;17.80;;;12.68;;
36829;SDS011;22767;47.328;9.640;2024-01-30T10:22:18;17.20;;;11.95;;
36829;SDS011;22767;47.328;9.640;2024-01-30T10:24:44;20.58;;;13.32;;
36829;SDS011;22767;47.328;9.640;2024-01-30T10:27:10;16.85;;;11.95;;
36829;SDS011;22767;47.328;9.640;2024-01-30T10:29:37;17.23;;;11.88;;
36829;SDS011;22767;47.328;9.640;2024-01-30T10:32:03;17.15;;;11.68;;
36829;SDS011;22767;47.328;9.640;2024-01-30T10:34:30;20.23;;;13.77;;
36829;SDS011;22767;47.328;9.640;2024-01-30T10:39:32;25.02;;;16.38;;
36829;SDS011;22767;47.328;9.640;2024-01-30T10:42:03;23.10;;;14.73;;
36829;SDS011;22767;47.328;9.640;2024-01-30T10:44:33;21.00;;;13.52;;
36829;SDS011;22767;47.328;9.640;2024-01-30T10:47:03;20.58;;;12.55;;
36829;SDS011;22767;47.328;9.640;2024-01-30T10:49:33;19.17;;;13.00;;
36829;SDS011;22767;47.328;9.640;2024-01-30T10:51:59;20.25;;;13.95;;
36829;SDS011;22767;47.328;9.640;2024-01-30T10:54:33;18.45;;;12.85;;
36829;SDS011;22767;47.328;9.640;2024-01-30T10:57:00;18.30;;;11.95;;
36829;SDS011;22767;47.328;9.640;2024-01-30T10:59:28;18.63;;;13.23;;
36829;SDS011;22767;47.328;9.640;2024-01-30T11:01:56;19.45;;;13.20;;
36829;SDS011;22767;47.328;9.640;2024-01-30T11:04:22;19.45;;;13.25;;
36829;SDS011;22767;47.328;9.640;2024-01-30T11:06:50;22.15;;;13.32;;
36829;SDS011;22767;47.328;9.640;2024-01-30T11:09:17;20.60;;;13.52;;
36829;SDS011;22767;47.328;9.640;2024-01-30T11:11:56;21.13;;;13.73;;
36829;SDS011;22767;47.328;9.640;2024-01-30T11:14:25;20.53;;;13.03;;
36829;SDS011;22767;47.328;9.640;2024-01-30T11:16:51;19.27;;;12.50;;
36829;SDS011;22767;47.328;9.640;2024-01-30T11:19:23;18.80;;;13.13;;
36829;SDS011;22767;47.328;9.640;2024-01-30T11:21:59;18.73;;;11.73;;
36829;SDS011;22767;47.328;9.640;2024-01-30T11:24:25;16.38;;;11.25;;
36829;SDS011;22767;47.328;9.640;2024-01-30T11:26:58;16.42;;;11.00;;
36829;SDS011;22767;47.328;9.640;2024-01-30T11:29:27;17.85;;;11.25;;
36829;SDS011;22767;47.328;9.640;2024-01-30T11:32:03;17.75;;;11.82;;
36829;SDS011;22767;47.328;9.640;2024-01-30T11:34:30;19.35;;;13.32;;
36829;SDS011;22767;47.328;9.640;2024-01-30T11:37:07;19.00;;;13.10;;
36829;SDS011;22767;47.328;9.640;2024-01-30T11:39:35;18.33;;;12.48;;
36829;SDS011;22767;47.328;9.640;2024-01-30T11:42:03;19.10;;;12.68;;
36829;SDS011;22767;47.328;9.640;2024-01-30T11:44:30;18.33;;;12.90;;
36829;SDS011;22767;47.328;9.640;2024-01-30T11:46:56;19.25;;;12.48;;
36829;SDS011;22767;47.328;9.640;2024-01-30T11:49:23;19.20;;;13.63;;
36829;SDS011;22767;47.328;9.640;2024-01-30T11:51:49;20.08;;;13.55;;
36829;SDS011;22767;47.328;9.640;2024-01-30T11:54:15;19.45;;;13.48;;
36829;SDS011;22767;47.328;9.640;2024-01-30T11:56:42;19.58;;;13.00;;
36829;SDS011;22767;47.328;9.640;2024-01-30T11:59:08;19.02;;;13.15;;
36829;SDS011;22767;47.328;9.640;2024-01-30T12:01:34;18.83;;;13.23;;
36829;SDS011;22767;47.328;9.640;2024-01-30T12:04:01;19.25;;;13.52;;
36829;SDS011;22767;47.328;9.640;2024-01-30T12:06:28;18.98;;;12.60;;
36829;SDS011;22767;47.328;9.640;2024-01-30T12:09:01;17.40;;;12.18;;
36829;SDS011;22767;47.328;9.640;2024-01-30T12:11:46;18.25;;;12.15;;
36829;SDS011;22767;47.328;9.640;2024-01-30T12:14:16;19.08;;;12.25;;
36829;SDS011;22767;47.328;9.640;2024-01-30T12:16:42;17.05;;;11.75;;
36829;SDS011;22767;47.328;9.640;2024-01-30T12:19:08;18.33;;;12.25;;
36829;SDS011;22767;47.328;9.640;2024-01-30T12:21:34;17.20;;;11.38;;
36829;SDS011;22767;47.328;9.640;2024-01-30T12:24:01;17.17;;;11.75;;
36829;SDS011;22767;47.328;9.640;2024-01-30T12:26:27;18.05;;;11.70;;
36829;SDS011;22767;47.328;9.640;2024-01-30T12:28:54;17.88;;;11.68;;
36829;SDS011;22767;47.328;9.640;2024-01-30T12:31:31;17.80;;;12.38;;
36829;SDS011;22767;47.328;9.640;2024-01-30T12:34:01;17.52;;;12.50;;
36829;SDS011;22767;47.328;9.640;2024-01-30T12:36:28;16.25;;;11.60;;
36829;SDS011;22767;47.328;9.640;2024-01-30T12:38:55;19.35;;;11.52;;
36829;SDS011;22767;47.328;9.640;2024-01-30T12:41:22;16.15;;;10.70;;
36829;SDS011;22767;47.328;9.640;2024-01-30T12:43:59;17.35;;;10.85;;
36829;SDS011;22767;47.328;9.640;2024-01-30T12:46:33;16.30;;;10.70;;
36829;SDS011;22767;47.328;9.640;2024-01-30T12:49:00;18.58;;;11.60;;
36829;SDS011;22767;47.328;9.640;2024-01-30T12:51:26;18.27;;;11.68;;
36829;SDS011;22767;47.328;9.640;2024-01-30T12:53:52;14.18;;;10.00;;
36829;SDS011;22767;47.328;9.640;2024-01-30T12:56:18;16.50;;;10.65;;
36829;SDS011;22767;47.328;9.640;2024-01-30T12:58:44;16.48;;;11.25;;
36829;SDS011;22767;47.328;9.640;2024-01-30T13:01:13;16.33;;;10.77;;
36829;SDS011;22767;47.328;9.640;2024-01-30T13:03:39;17.95;;;11.65;;
36829;SDS011;22767;47.328;9.640;2024-01-30T13:06:05;17.33;;;11.68;;
36829;SDS011;22767;47.328;9.640;2024-01-30T13:08:31;16.92;;;11.57;;
36829;SDS011;22767;47.328;9.640;2024-01-30T13:10:57;19.67;;;11.32;;
36829;SDS011;22767;47.328;9.640;2024-01-30T13:13:23;17.58;;;11.80;;
36829;SDS011;22767;47.328;9.640;2024-01-30T13:15:49;16.58;;;12.13;;
36829;SDS011;22767;47.328;9.640;2024-01-30T13:18:18;16.98;;;11.80;;
36829;SDS011;22767;47.328;9.640;2024-01-30T13:20:47;18.67;;;11.85;;
36829;SDS011;22767;47.328;9.640;2024-01-30T13:23:13;17.35;;;11.43;;
36829;SDS011;22767;47.328;9.640;2024-01-30T13:25:39;15.13;;;10.82;;
36829;SDS011;22767;47.328;9.640;2024-01-30T13:28:05;15.07;;;10.82;;
36829;SDS011;22767;47.328;9.640;2024-01-30T13:30:38;14.73;;;10.60;;
36829;SDS011;22767;47.328;9.640;2024-01-30T13:33:04;16.73;;;11.55;;
36829;SDS011;22767;47.328;9.640;2024-01-30T13:35:30;18.05;;;11.05;;
36829;SDS011;22767;47.328;9.640;2024-01-30T13:37:56;17.83;;;11.07;;
36829;SDS011;22767;47.328;9.640;2024-01-30T13:40:22;20.30;;;11.63;;
36829;SDS011;22767;47.328;9.640;2024-01-30T13:42:48;17.80;;;11.52;;
36829;SDS011;22767;47.328;9.640;2024-01-30T13:45:14;15.00;;;11.32;;
36829;SDS011;22767;47.328;9.640;2024-01-30T13:47:40;16.77;;;11.10;;
36829;SDS011;22767;47.328;9.640;2024-01-30T13:50:06;14.65;;;10.35;;
36829;SDS011;22767;47.328;9.640;2024-01-30T13:52:33;16.23;;;11.73;;
36829;SDS011;22767;47.328;9.640;2024-01-30T13:55:02;16.08;;;11.95;;
36829;SDS011;22767;47.328;9.640;2024-01-30T13:57:29;15.55;;;11.02;;
36829;SDS011;22767;47.328;9.640;2024-01-30T13:59:58;16.85;;;10.50;;
36829;SDS011;22767;47.328;9.640;2024-01-30T14:02:32;15.85;;;11.32;;
36829;SDS011;22767;47.328;9.640;2024-01-30T14:04:58;18.15;;;11.32;;
36829;SDS011;22767;47.328;9.640;2024-01-30T14:07:25;14.20;;;10.88;;
36829;SDS011;22767;47.328;9.640;2024-01-30T14:09:51;15.85;;;10.73;;
36829;SDS011;22767;47.328;9.640;2024-01-30T14:12:17;17.90;;;11.55;;
36829;SDS011;22767;47.328;9.640;2024-01-30T14:14:43;16.90;;;11.05;;
36829;SDS011;22767;47.328;9.640;2024-01-30T14:17:09;16.58;;;11.57;;
36829;SDS011;22767;47.328;9.640;2024-01-30T14:19:35;16.48;;;11.20;;
36829;SDS011;22767;47.328;9.640;2024-01-30T14:22:01;17.55;;;11.00;;
36829;SDS011;22767;47.328;9.640;2024-01-30T14:24:27;14.85;;;10.48;;
36829;SDS011;22767;47.328;9.640;2024-01-30T14:26:53;15.25;;;10.57;;
36829;SDS011;22767;47.328;9.640;2024-01-30T14:29:20;17.15;;;10.70;;
36829;SDS011;22767;47.328;9.640;2024-01-30T14:31:46;15.50;;;10.98;;
36829;SDS011;22767;47.328;9.640;2024-01-30T14:34:12;13.63;;;10.82;;
36829;SDS011;22767;47.328;9.640;2024-01-30T14:36:38;17.42;;;11.13;;
36829;SDS011;22767;47.328;9.640;2024-01-30T14:39:05;15.52;;;11.45;;